Time;durP1;ratioP1;P1;durP2;ratioP2;P2;SDS_P1;SDS_P2;PMS_P1;PMS_P2;Temp;Humidity;BMP_temperature;BMP_pressure;BME280_temperature;BME280_humidity;BME280_pressure;Samples;Min_cycle;Max_cycle;Signal;HPM_P1;HPM_P2
2023/01/27 00:00:14;;;;;;;18.05;10.13;;;18.80;99.90;;;;;;5094868;28;20020;-48
2023/01/27 00:02:41;;;;;;;14.00;8.52;;;18.80;99.90;;;;;;5095325;28;20107;-47
2023/01/27 00:05:08;;;;;;;12.90;8.70;;;18.70;99.90;;;;;;5094943;28;20404;-47
2023/01/27 00:07:34;;;;;;;18.65;8.65;;;18.70;99.90;;;;;;5095140;28;20077;-47
2023/01/27 00:10:00;;;;;;;13.88;9.27;;;18.70;99.90;;;;;;5095329;28;20038;-48
2023/01/27 00:15:13;;;;;;;13.15;8.13;;;18.70;99.90;;;;;;5094545;28;20085;-49
2023/01/27 00:17:39;;;;;;;13.85;8.25;;;18.70;99.90;;;;;;5094899;28;20012;-48
2023/01/27 00:20:06;;;;;;;13.20;8.20;;;18.70;99.90;;;;;;5094708;28;20028;-45
2023/01/27 00:25:17;;;;;;;14.90;9.15;;;18.70;99.90;;;;;;5086007;28;20043;-46
2023/01/27 00:27:42;;;;;;;14.27;9.43;;;18.70;99.90;;;;;;5093511;28;20020;-46
2023/01/27 00:30:09;;;;;;;13.90;8.35;;;18.70;99.90;;;;;;5094514;28;20373;-46
2023/01/27 00:35:19;;;;;;;12.30;8.85;;;18.70;99.90;;;;;;5089327;28;20093;-46
2023/01/27 00:37:45;;;;;;;12.20;8.90;;;18.70;99.90;;;;;;5094111;28;20024;-47
2023/01/27 00:40:13;;;;;;;13.85;8.43;;;18.60;99.90;;;;;;5093169;28;20024;-46
2023/01/27 00:42:39;;;;;;;13.80;9.90;;;18.60;99.90;;;;;;5094474;28;20020;-45
2023/01/27 00:47:51;;;;;;;13.02;8.77;;;18.60;99.90;;;;;;5073896;28;20081;-47
2023/01/27 00:50:18;;;;;;;12.80;8.80;;;18.60;99.90;;;;;;5073591;28;20071;-47
2023/01/27 00:52:45;;;;;;;15.77;9.57;;;18.60;99.90;;;;;;5073247;28;20029;-47
2023/01/27 00:55:14;;;;;;;15.68;9.40;;;18.60;99.90;;;;;;5073536;28;20257;-48
2023/01/27 00:57:40;;;;;;;13.18;9.07;;;18.50;99.90;;;;;;5073567;28;20017;-47
2023/01/27 01:00:08;;;;;;;15.85;10.40;;;18.50;99.90;;;;;;5086845;22;20053;-52
2023/01/27 01:02:34;;;;;;;14.15;9.75;;;18.50;99.90;;;;;;5073254;28;20495;-53
2023/01/27 01:05:00;;;;;;;13.27;8.93;;;18.50;99.90;;;;;;5077927;28;20491;-55
2023/01/27 01:07:26;;;;;;;13.25;9.13;;;18.50;99.90;;;;;;5084900;28;20055;-53
2023/01/27 01:09:51;;;;;;;14.30;9.90;;;18.50;99.90;;;;;;5071761;28;20364;-53
2023/01/27 01:12:17;;;;;;;13.85;8.95;;;18.50;99.90;;;;;;5078772;28;20027;-55
2023/01/27 01:14:43;;;;;;;12.52;8.68;;;18.50;99.90;;;;;;5093825;28;20028;-56
2023/01/27 01:17:09;;;;;;;13.38;9.52;;;18.50;99.90;;;;;;5093239;28;20410;-55
2023/01/27 01:19:35;;;;;;;13.68;8.23;;;18.50;99.90;;;;;;5092621;28;20069;-57
2023/01/27 01:22:00;;;;;;;14.55;9.13;;;18.50;99.90;;;;;;5093802;28;20020;-57
2023/01/27 01:24:26;;;;;;;13.43;8.63;;;18.40;99.90;;;;;;5093311;28;20016;-55
2023/01/27 01:26:52;;;;;;;12.40;8.27;;;18.40;99.90;;;;;;5093572;28;20472;-56
2023/01/27 01:29:18;;;;;;;13.45;8.63;;;18.40;99.90;;;;;;5093596;28;20521;-57
2023/01/27 01:31:43;;;;;;;13.70;8.52;;;18.40;99.90;;;;;;5093071;28;20464;-54
2023/01/27 01:34:09;;;;;;;14.77;8.93;;;18.40;99.90;;;;;;5079984;28;20047;-55
2023/01/27 01:36:35;;;;;;;13.07;8.77;;;18.40;99.90;;;;;;5092947;28;20024;-56
2023/01/27 01:39:01;;;;;;;14.18;7.50;;;18.40;99.90;;;;;;5093228;28;20091;-55
2023/01/27 01:41:27;;;;;;;11.60;8.65;;;18.40;99.90;;;;;;5093314;28;20056;-56
2023/01/27 01:43:53;;;;;;;18.45;8.27;;;18.40;99.90;;;;;;5089637;28;20086;-56
2023/01/27 01:46:19;;;;;;;12.43;8.23;;;18.40;99.90;;;;;;5090405;28;20028;-55
2023/01/27 01:48:53;;;;;;;11.75;8.02;;;18.30;99.90;;;;;;5091675;28;20468;-55
2023/01/27 01:51:31;;;;;;;11.63;7.82;;;18.40;99.90;;;;;;5091661;28;20028;-54
2023/01/27 01:54:09;;;;;;;12.45;6.85;;;18.30;99.90;;;;;;5091338;28;20414;-56
2023/01/27 01:56:37;;;;;;;11.45;7.38;;;18.30;99.90;;;;;;5091584;28;20024;-54
2023/01/27 02:01:38;;;;;;;11.82;7.15;;;18.30;99.90;;;;;;5029684;28;20080;-52
2023/01/27 02:04:12;;;;;;;9.25;6.20;;;18.30;99.90;;;;;;5013635;28;20021;-51
2023/01/27 02:07:04;;;;;;;10.85;6.85;;;18.30;99.90;;;;;;5031159;28;20029;-51
2023/01/27 02:09:30;;;;;;;11.00;6.72;;;18.30;99.90;;;;;;5029135;28;20029;-51
2023/01/27 02:11:57;;;;;;;10.80;7.03;;;18.30;99.90;;;;;;5031008;28;20539;-52
2023/01/27 02:14:23;;;;;;;10.20;6.80;;;18.30;99.90;;;;;;5031306;28;20025;-52
2023/01/27 02:16:49;;;;;;;10.20;6.72;;;18.30;99.90;;;;;;5030607;28;20393;-50
2023/01/27 02:19:56;;;;;;;10.38;6.78;;;18.20;99.90;;;;;;5013130;28;20536;-49
2023/01/27 02:22:31;;;;;;;10.02;6.65;;;18.20;99.90;;;;;;5014320;28;20735;-51
2023/01/27 02:25:05;;;;;;;10.68;6.55;;;18.20;99.90;;;;;;5030815;28;20390;-52
2023/01/27 02:27:31;;;;;;;9.82;7.30;;;18.20;99.90;;;;;;5032130;28;20071;-52
2023/01/27 02:29:57;;;;;;;14.23;7.20;;;18.20;99.90;;;;;;5022848;28;20018;-55
2023/01/27 02:32:24;;;;;;;8.20;6.10;;;18.20;99.90;;;;;;4994376;28;20037;-54
2023/01/27 02:34:52;;;;;;;9.35;6.70;;;18.20;99.90;;;;;;5012073;28;20058;-53
2023/01/27 02:37:19;;;;;;;9.73;6.05;;;18.20;99.90;;;;;;5011831;28;20024;-54
2023/01/27 02:39:48;;;;;;;8.60;6.05;;;18.20;99.90;;;;;;5011912;28;20026;-54
2023/01/27 02:42:15;;;;;;;10.93;6.38;;;18.10;99.90;;;;;;5011983;28;20029;-54
2023/01/27 02:44:41;;;;;;;;;;;18.20;99.90;;;;;;5012061;28;20034;-54
2023/01/27 02:47:07;;;;;;;9.60;5.90;;;18.10;99.90;;;;;;5011827;28;19916;-54
2023/01/27 02:49:33;;;;;;;9.82;6.00;;;18.10;99.90;;;;;;5012116;28;20029;-54
2023/01/27 02:51:58;;;;;;;9.88;6.47;;;18.10;99.90;;;;;;5012013;28;20030;-52
2023/01/27 02:54:27;;;;;;;9.43;6.30;;;18.10;99.90;;;;;;5011548;28;20498;-54
2023/01/27 02:56:52;;;;;;;9.80;6.15;;;18.10;99.90;;;;;;5009675;28;20022;-55
2023/01/27 02:59:18;;;;;;;9.60;5.82;;;18.00;99.90;;;;;;5012230;28;20014;-54
2023/01/27 03:01:44;;;;;;;8.45;6.05;;;18.00;99.90;;;;;;4994670;28;20026;-53
2023/01/27 03:04:10;;;;;;;9.05;5.82;;;18.00;99.90;;;;;;5011922;28;20037;-53
2023/01/27 03:06:37;;;;;;;8.93;6.05;;;18.00;99.90;;;;;;5012070;28;20478;-53
2023/01/27 03:09:04;;;;;;;8.68;6.18;;;18.00;99.90;;;;;;5012293;28;20034;-53
2023/01/27 03:14:15;;;;;;;8.68;5.80;;;18.00;99.90;;;;;;5009678;28;20036;-53
2023/01/27 03:19:27;;;;;;;10.70;6.15;;;17.90;99.90;;;;;;4997512;28;20049;-53
2023/01/27 03:21:53;;;;;;;9.43;5.88;;;17.90;99.90;;;;;;5012035;28;20504;-53
2023/01/27 03:24:20;;;;;;;8.98;6.65;;;17.90;99.90;;;;;;5012114;28;20030;-53
2023/01/27 03:26:45;;;;;;;9.40;5.95;;;17.90;99.90;;;;;;5011947;28;20037;-53
2023/01/27 03:31:55;;;;;;;7.75;5.80;;;17.90;99.90;;;;;;5012168;28;20116;-53
2023/01/27 03:34:21;;;;;;;8.90;5.70;;;17.90;99.90;;;;;;5012037;28;20066;-53
2023/01/27 03:47:43;;;;;;;7.93;5.55;;;17.80;99.90;;;;;;5010239;28;20033;-53
2023/01/27 03:50:10;;;;;;;7.30;5.55;;;17.80;99.90;;;;;;5009878;28;20034;-52
2023/01/27 03:52:39;;;;;;;8.38;5.80;;;17.80;99.90;;;;;;5010152;28;20018;-52
2023/01/27 03:55:08;;;;;;;9.57;6.50;;;17.80;99.90;;;;;;5010165;28;20022;-53
2023/01/27 03:57:36;;;;;;;9.00;5.70;;;17.80;99.90;;;;;;5010069;28;20022;-53
2023/01/27 04:00:04;;;;;;;7.80;5.55;;;17.80;99.90;;;;;;4993515;28;20595;-52
2023/01/27 04:08:00;;;;;;;7.97;5.55;;;17.70;99.90;;;;;;5012080;28;20390;-53
2023/01/27 04:10:26;;;;;;;9.20;6.40;;;17.70;99.90;;;;;;5015212;28;20030;-53
2023/01/27 04:12:51;;;;;;;7.88;5.35;;;17.70;99.90;;;;;;5015358;28;20040;-53
2023/01/27 04:15:18;;;;;;;8.23;5.28;;;17.70;99.90;;;;;;5015216;28;20104;-52
2023/01/27 04:17:44;;;;;;;7.25;5.32;;;17.70;99.90;;;;;;4997460;28;20049;-53
2023/01/27 04:20:10;;;;;;;7.63;5.28;;;17.70;99.90;;;;;;5015267;28;20124;-52
2023/01/27 04:22:36;;;;;;;8.63;5.60;;;17.70;99.90;;;;;;5015423;28;20022;-52
2023/01/27 04:25:01;;;;;;;8.20;5.90;;;17.70;99.90;;;;;;5014957;28;20084;-52
2023/01/27 04:27:27;;;;;;;8.13;5.68;;;17.60;99.90;;;;;;5015074;28;20053;-52
2023/01/27 04:29:53;;;;;;;7.95;5.93;;;17.60;99.90;;;;;;5015098;28;20033;-52
2023/01/27 04:32:19;;;;;;;8.55;4.93;;;17.70;99.90;;;;;;5014965;28;20022;-53
2023/01/27 04:34:45;;;;;;;6.70;5.20;;;17.70;99.90;;;;;;5014941;28;20144;-53
2023/01/27 04:37:11;;;;;;;7.10;4.95;;;17.60;99.90;;;;;;5014868;28;20104;-52
2023/01/27 04:39:37;;;;;;;7.80;5.20;;;17.60;99.90;;;;;;5014860;28;20026;-53
2023/01/27 04:42:03;;;;;;;7.95;5.35;;;17.60;99.90;;;;;;5014789;28;20457;-53
2023/01/27 04:44:29;;;;;;;9.07;5.20;;;17.60;99.90;;;;;;5014682;28;20405;-53
2023/01/27 04:46:55;;;;;;;7.55;5.30;;;17.60;99.90;;;;;;5014641;28;20029;-52
2023/01/27 04:49:21;;;;;;;8.32;5.53;;;17.60;99.90;;;;;;4996995;28;20024;-52
2023/01/27 04:51:47;;;;;;;6.93;4.97;;;17.60;99.90;;;;;;5014612;28;20018;-52
2023/01/27 04:54:12;;;;;;;8.00;5.80;;;17.60;99.90;;;;;;5014521;28;20396;-53
2023/01/27 04:56:41;;;;;;;7.05;4.70;;;17.60;99.90;;;;;;5014645;28;20522;-52
2023/01/27 04:59:11;;;;;;;8.77;5.53;;;17.50;99.90;;;;;;5015272;28;20446;-52
2023/01/27 05:01:37;;;;;;;7.80;5.70;;;17.50;99.90;;;;;;5014993;28;20042;-52
2023/01/27 05:04:03;;;;;;;6.80;5.18;;;17.50;99.90;;;;;;5014344;28;20536;-53
2023/01/27 05:06:29;;;;;;;8.45;5.57;;;17.50;99.90;;;;;;4996524;28;20100;-52
2023/01/27 05:08:55;;;;;;;7.25;5.00;;;17.50;99.90;;;;;;5014207;28;20084;-52
2023/01/27 05:11:21;;;;;;;7.50;5.32;;;17.50;99.90;;;;;;5014231;28;20034;-52
2023/01/27 05:13:47;;;;;;;5.75;4.47;;;17.50;99.90;;;;;;5014291;28;20109;-52
2023/01/27 05:16:13;;;;;;;7.53;5.10;;;17.50;99.90;;;;;;4996641;28;20037;-52
2023/01/27 05:18:40;;;;;;;6.13;4.57;;;17.50;99.90;;;;;;5014212;28;20378;-52
2023/01/27 05:21:07;;;;;;;7.35;4.95;;;17.50;99.90;;;;;;4996379;28;20065;-52
2023/01/27 05:23:36;;;;;;;7.43;5.13;;;17.50;99.90;;;;;;5013999;28;20386;-53
2023/01/27 05:26:15;;;;;;;5.95;4.80;;;17.50;99.90;;;;;;5013911;28;20042;-53
2023/01/27 05:28:42;;;;;;;7.20;5.00;;;17.50;99.90;;;;;;4996405;28;20378;-52
2023/01/27 05:31:18;;;;;;;9.02;4.68;;;17.50;99.90;;;;;;5014110;28;20029;-52
2023/01/27 05:33:45;;;;;;;7.38;5.35;;;17.50;99.90;;;;;;4996087;28;20026;-52
2023/01/27 05:36:12;;;;;;;7.27;4.63;;;17.50;99.90;;;;;;5013902;28;20465;-52
2023/01/27 05:38:38;;;;;;;;;;;17.40;99.90;;;;;;5014255;28;20278;-52
2023/01/27 05:41:06;;;;;;;8.23;4.72;;;17.40;99.90;;;;;;5028695;28;19906;-52
2023/01/27 05:43:34;;;;;;;7.65;4.80;;;17.40;99.90;;;;;;5013573;28;20042;-52
2023/01/27 05:46:06;;;;;;;6.80;5.20;;;17.40;99.90;;;;;;5013460;28;20425;-52
2023/01/27 05:48:37;;;;;;;6.88;4.93;;;17.40;99.90;;;;;;5013528;28;20026;-52
2023/01/27 05:51:04;;;;;;;8.77;5.32;;;17.40;99.90;;;;;;5013438;28;20053;-53
2023/01/27 05:53:30;;;;;;;7.32;5.20;;;17.40;99.90;;;;;;4995809;28;20029;-52
2023/01/27 05:55:56;;;;;;;6.38;4.88;;;17.40;99.90;;;;;;5013384;28;20030;-52
2023/01/27 05:58:22;;;;;;;6.50;5.07;;;17.40;99.90;;;;;;5013450;28;20022;-52
2023/01/27 06:00:48;;;;;;;7.40;4.88;;;17.40;99.90;;;;;;5013092;28;20124;-53
2023/01/27 06:03:14;;;;;;;5.78;4.93;;;17.40;99.90;;;;;;4995626;28;20423;-53
2023/01/27 06:05:52;;;;;;;6.18;4.82;;;17.40;99.90;;;;;;5013498;28;20073;-54
2023/01/27 06:08:18;;;;;;;7.72;5.00;;;17.40;99.90;;;;;;5013240;28;20022;-52
2023/01/27 06:10:44;;;;;;;8.00;5.38;;;17.40;99.90;;;;;;5013192;28;20084;-53
2023/01/27 06:13:10;;;;;;;7.05;4.85;;;17.40;99.90;;;;;;5013362;28;20017;-53
2023/01/27 06:15:40;;;;;;;7.68;5.10;;;17.40;99.90;;;;;;5013039;28;20030;-54
2023/01/27 06:18:05;;;;;;;5.68;4.60;;;17.30;99.90;;;;;;5012986;28;20100;-54
2023/01/27 06:20:31;;;;;;;6.65;4.70;;;17.30;99.90;;;;;;5013097;28;20101;-54
2023/01/27 06:22:57;;;;;;;7.10;5.10;;;17.30;99.90;;;;;;5012974;28;20060;-53
2023/01/27 06:25:24;;;;;;;7.72;5.43;;;17.30;99.90;;;;;;5012720;28;20045;-54
2023/01/27 06:27:56;;;;;;;7.75;5.15;;;17.30;99.90;;;;;;5012862;28;20018;-53
2023/01/27 06:30:23;;;;;;;6.63;4.70;;;17.30;99.90;;;;;;5012841;28;20029;-54
2023/01/27 06:32:49;;;;;;;7.47;5.20;;;17.30;99.90;;;;;;5012464;28;20437;-54
2023/01/27 06:35:14;;;;;;;6.40;5.07;;;17.30;99.90;;;;;;4995520;28;20026;-54
2023/01/27 06:37:40;;;;;;;7.35;5.30;;;17.30;99.90;;;;;;5012939;28;20420;-54
2023/01/27 06:40:06;;;;;;;7.18;5.63;;;17.30;99.90;;;;;;5012646;28;20052;-54
2023/01/27 06:42:32;;;;;;;11.65;7.03;;;17.30;99.90;;;;;;5012552;28;20033;-53
2023/01/27 06:44:58;;;;;;;7.13;5.47;;;17.30;99.90;;;;;;5012496;28;20029;-53
2023/01/27 06:47:24;;;;;;;9.02;6.05;;;17.30;99.90;;;;;;5012612;28;20022;-53
2023/01/27 06:49:49;;;;;;;9.68;6.93;;;17.30;99.90;;;;;;5012494;28;20029;-53
2023/01/27 06:52:15;;;;;;;9.05;6.47;;;17.30;99.90;;;;;;5012679;28;20037;-53
2023/01/27 06:54:41;;;;;;;9.45;6.80;;;17.20;99.90;;;;;;5012641;28;20037;-53
2023/01/27 06:57:10;;;;;;;9.80;7.15;;;17.20;99.90;;;;;;5012613;28;20034;-53
2023/01/27 06:59:36;;;;;;;11.70;8.50;;;17.20;99.90;;;;;;5012177;28;20050;-52
2023/01/27 07:02:01;;;;;;;10.50;7.25;;;17.20;99.90;;;;;;5012584;28;20040;-53
2023/01/27 07:04:28;;;;;;;10.82;8.30;;;17.20;99.90;;;;;;5012344;28;20064;-53
2023/01/27 07:06:54;;;;;;;12.77;8.38;;;17.20;99.90;;;;;;5012200;28;20052;-53
2023/01/27 07:09:20;;;;;;;13.32;9.18;;;17.20;99.90;;;;;;5012246;28;20026;-53
2023/01/27 07:11:45;;;;;;;13.32;9.52;;;17.20;99.90;;;;;;5012651;28;20028;-52
2023/01/27 07:14:11;;;;;;;11.13;8.20;;;17.20;99.90;;;;;;5012329;28;20026;-53
2023/01/27 07:16:37;;;;;;;13.35;9.27;;;17.20;99.90;;;;;;4994746;28;20113;-53
2023/01/27 07:19:03;;;;;;;14.38;9.20;;;17.20;99.90;;;;;;5012301;28;20117;-53
2023/01/27 07:21:28;;;;;;;13.00;9.23;;;17.20;99.90;;;;;;5012310;28;20084;-53
2023/01/27 07:23:54;;;;;;;14.57;9.80;;;17.20;99.90;;;;;;5012253;28;20061;-53
2023/01/27 07:26:20;;;;;;;13.25;9.52;;;17.20;99.90;;;;;;5012066;28;20030;-53
2023/01/27 07:28:45;;;;;;;12.98;9.30;;;17.20;99.90;;;;;;5012474;28;20030;-53
2023/01/27 07:31:11;;;;;;;14.48;10.25;;;17.20;99.90;;;;;;4994465;28;20084;-53
2023/01/27 07:33:37;;;;;;;15.98;9.98;;;17.10;99.90;;;;;;5012139;28;20022;-53
2023/01/27 07:36:03;;;;;;;14.70;10.85;;;17.10;99.90;;;;;;5012047;28;20030;-53
2023/01/27 07:38:29;;;;;;;17.83;10.05;;;17.10;99.90;;;;;;5012255;28;20022;-53
2023/01/27 07:40:54;;;;;;;14.38;10.13;;;17.10;99.90;;;;;;5012131;28;20426;-53
2023/01/27 07:43:20;;;;;;;14.90;10.38;;;17.10;99.90;;;;;;5012566;28;20417;-53
2023/01/27 07:45:47;;;;;;;15.05;10.40;;;17.10;99.90;;;;;;5016005;28;20030;-53
2023/01/27 07:48:13;;;;;;;15.85;9.90;;;17.10;99.90;;;;;;5016003;28;20030;-52
2023/01/27 07:50:43;;;;;;;13.40;9.68;;;17.10;99.90;;;;;;4998282;28;20113;-52
2023/01/27 07:53:10;;;;;;;17.10;10.13;;;17.10;99.90;;;;;;5015538;28;20513;-52
2023/01/27 07:55:36;;;;;;;14.88;9.77;;;17.10;99.90;;;;;;5015595;28;20025;-53
2023/01/27 07:58:02;;;;;;;14.70;9.95;;;17.20;99.90;;;;;;5015589;28;20105;-53
2023/01/27 08:00:28;;;;;;;14.02;10.05;;;17.20;99.90;;;;;;5015374;28;20116;-53
2023/01/27 08:02:55;;;;;;;16.55;10.25;;;17.20;99.90;;;;;;5015607;28;20475;-52
2023/01/27 08:05:22;;;;;;;14.95;10.40;;;17.20;99.90;;;;;;5015559;28;20142;-53
2023/01/27 08:07:49;;;;;;;14.90;9.90;;;17.20;99.90;;;;;;5015628;28;20033;-53
2023/01/27 08:10:17;;;;;;;15.25;10.15;;;17.30;99.90;;;;;;4997934;28;20441;-53
2023/01/27 08:12:43;;;;;;;14.77;10.15;;;17.30;99.90;;;;;;5015470;28;20037;-53
2023/01/27 08:15:13;;;;;;;13.75;9.38;;;17.30;99.90;;;;;;5015455;28;20021;-54
2023/01/27 08:17:38;;;;;;;14.52;9.88;;;17.30;99.90;;;;;;5015237;28;20052;-53
2023/01/27 08:20:05;;;;;;;12.63;9.48;;;17.40;99.90;;;;;;5015136;28;20022;-53
2023/01/27 08:22:31;;;;;;;12.00;9.15;;;17.40;99.90;;;;;;5015179;28;20018;-53
2023/01/27 08:24:57;;;;;;;14.05;9.18;;;17.40;99.90;;;;;;5015257;28;20026;-53
2023/01/27 08:27:22;;;;;;;15.10;9.93;;;17.50;99.90;;;;;;5014889;28;20026;-54
2023/01/27 08:29:48;;;;;;;13.35;9.00;;;17.50;99.90;;;;;;5015236;28;20025;-53
2023/01/27 08:32:14;;;;;;;14.07;9.15;;;17.50;99.90;;;;;;5014899;28;20026;-53
2023/01/27 08:34:40;;;;;;;13.77;8.98;;;17.60;99.90;;;;;;5014876;28;20022;-52
2023/01/27 08:37:06;;;;;;;14.80;9.00;;;17.60;99.90;;;;;;5014906;28;20102;-53
2023/01/27 08:39:33;;;;;;;12.07;8.77;;;17.60;99.90;;;;;;5014988;28;20026;-53
2023/01/27 08:41:59;;;;;;;11.85;8.63;;;17.60;99.90;;;;;;5014751;28;20038;-52
2023/01/27 08:44:27;;;;;;;12.80;8.98;;;17.70;99.90;;;;;;5014728;28;20076;-52
2023/01/27 08:46:53;;;;;;;11.18;7.93;;;17.70;99.90;;;;;;5014661;28;20034;-52
2023/01/27 08:49:19;;;;;;;11.77;8.80;;;17.80;99.90;;;;;;5014836;28;20109;-52
2023/01/27 08:51:45;;;;;;;11.52;8.75;;;17.80;99.90;;;;;;4996765;28;20128;-52
2023/01/27 08:54:10;;;;;;;14.50;9.10;;;17.80;99.90;;;;;;5014094;28;20026;-52
2023/01/27 08:56:36;;;;;;;13.65;9.73;;;17.80;99.90;;;;;;5014196;28;20030;-51
2023/01/27 08:59:02;;;;;;;18.00;11.65;;;17.90;99.90;;;;;;5014270;28;20026;-52
2023/01/27 09:01:28;;;;;;;13.25;10.25;;;17.90;99.90;;;;;;4996682;28;20503;-52
2023/01/27 09:03:53;;;;;;;14.45;10.70;;;18.00;99.90;;;;;;5014097;28;20344;-52
2023/01/27 09:06:20;;;;;;;12.90;10.13;;;18.00;99.90;;;;;;5014378;28;20048;-52
2023/01/27 09:09:07;;;;;;;15.95;11.57;;;18.00;99.90;;;;;;5014303;28;20021;-51
2023/01/27 09:11:32;;;;;;;17.30;10.85;;;18.00;99.90;;;;;;5013951;28;20026;-52
2023/01/27 09:13:58;;;;;;;16.08;11.13;;;18.10;99.90;;;;;;4996871;28;20018;-52
2023/01/27 09:16:23;;;;;;;13.25;10.73;;;18.10;99.90;;;;;;5014065;28;20411;-52
2023/01/27 09:18:49;;;;;;;16.92;11.30;;;18.20;99.90;;;;;;5014115;28;20410;-53
2023/01/27 09:21:15;;;;;;;14.98;10.80;;;18.20;99.90;;;;;;5014072;28;20022;-52
2023/01/27 09:23:41;;;;;;;15.13;10.73;;;18.20;99.90;;;;;;5013728;28;20114;-52
2023/01/27 09:26:06;;;;;;;15.65;10.35;;;18.30;99.90;;;;;;5013892;28;20034;-52
2023/01/27 09:28:32;;;;;;;15.55;11.50;;;18.30;99.90;;;;;;5013965;28;20477;-52
2023/01/27 09:30:58;;;;;;;20.08;11.35;;;18.30;99.90;;;;;;5013841;28;20096;-52
2023/01/27 09:33:25;;;;;;;15.85;10.88;;;18.30;99.90;;;;;;5013842;28;20025;-52
2023/01/27 09:36:04;;;;;;;16.38;10.45;;;18.40;99.90;;;;;;5013963;28;20029;-52
2023/01/27 09:38:35;;;;;;;14.40;10.10;;;18.40;99.90;;;;;;5013720;28;20489;-52
2023/01/27 09:41:22;;;;;;;12.65;10.20;;;18.50;99.90;;;;;;5013659;28;20030;-53
2023/01/27 09:44:12;;;;;;;14.10;10.35;;;18.50;99.90;;;;;;5013296;28;20076;-52
2023/01/27 09:46:55;;;;;;;13.38;9.32;;;18.50;99.90;;;;;;4995895;28;20129;-52
2023/01/27 09:49:39;;;;;;;13.05;9.55;;;18.60;99.90;;;;;;5013604;28;20029;-52
2023/01/27 09:52:08;;;;;;;12.07;8.98;;;18.60;99.90;;;;;;5013442;28;20033;-52
2023/01/27 09:54:47;;;;;;;13.50;9.57;;;18.60;99.90;;;;;;5013108;28;20053;-53
2023/01/27 09:57:34;;;;;;;15.18;8.85;;;18.70;99.90;;;;;;5013349;28;20061;-52
2023/01/27 10:00:00;;;;;;;;;;;18.70;99.90;;;;;;5013092;28;20037;-53
2023/01/27 10:02:41;;;;;;;11.48;8.00;;;18.80;99.90;;;;;;5013061;28;19960;-53
2023/01/27 10:05:27;;;;;;;12.02;8.93;;;18.80;99.90;;;;;;5013008;28;20091;-53
2023/01/27 10:08:19;;;;;;;10.75;7.85;;;18.80;99.90;;;;;;5012564;28;20064;-52
2023/01/27 10:11:06;;;;;;;12.60;8.23;;;18.90;99.90;;;;;;5012880;28;20032;-53
2023/01/27 10:13:47;;;;;;;11.15;7.35;;;18.90;99.90;;;;;;4994779;28;20030;-52
2023/01/27 10:16:26;;;;;;;12.32;7.95;;;18.90;99.90;;;;;;5012397;28;20555;-52
2023/01/27 10:19:32;;;;;;;18.83;7.45;;;19.00;99.90;;;;;;5011498;28;20036;-52
2023/01/27 10:22:14;;;;;;;10.50;6.70;;;19.10;99.90;;;;;;5010446;28;20125;-52
2023/01/27 10:25:18;;;;;;;11.30;7.32;;;19.10;99.90;;;;;;5010509;28;20065;-52
2023/01/27 10:27:51;;;;;;;9.43;6.82;;;19.20;99.90;;;;;;4970057;28;20030;-54
2023/01/27 10:30:33;;;;;;;8.32;6.30;;;19.20;99.90;;;;;;5005011;28;21017;-53
2023/01/27 10:33:11;;;;;;;8.70;6.40;;;19.30;99.90;;;;;;5010795;28;20056;-53
2023/01/27 10:35:46;;;;;;;14.00;6.60;;;19.40;99.90;;;;;;5010995;28;20030;-55
2023/01/27 10:38:52;;;;;;;9.90;6.35;;;19.40;99.90;;;;;;5011133;28;20018;-55
2023/01/27 10:41:35;;;;;;;8.00;5.40;;;19.50;99.90;;;;;;5007251;28;20033;-55
2023/01/27 10:44:04;;;;;;;9.55;5.35;;;19.50;99.90;;;;;;5008740;28;20105;-55
2023/01/27 10:46:42;;;;;;;11.82;5.90;;;19.60;99.90;;;;;;5010850;28;20095;-55
2023/01/27 10:49:30;;;;;;;7.88;5.38;;;19.60;99.90;;;;;;5008216;28;20044;-54
2023/01/27 10:52:10;;;;;;;11.82;6.75;;;19.70;99.90;;;;;;5003301;28;20045;-53
2023/01/27 10:54:47;;;;;;;12.13;6.00;;;19.80;99.90;;;;;;5012177;28;20033;-53
2023/01/27 10:57:19;;;;;;;9.35;5.47;;;19.80;99.90;;;;;;5010668;28;20104;-51
2023/01/27 11:00:12;;;;;;;7.85;5.13;;;19.90;99.90;;;;;;5005134;28;20575;-51
2023/01/27 11:02:41;;;;;;;14.23;5.20;;;19.90;99.90;;;;;;5011387;28;20038;-52
2023/01/27 11:05:12;;;;;;;8.70;5.93;;;20.00;99.90;;;;;;5010121;28;20095;-53
2023/01/27 11:07:48;;;;;;;23.08;5.65;;;20.00;99.90;;;;;;5010458;28;20022;-53
2023/01/27 11:10:19;;;;;;;14.32;5.72;;;20.00;99.90;;;;;;5025783;28;20032;-54
2023/01/27 11:12:53;;;;;;;16.17;5.68;;;20.10;99.90;;;;;;5011660;28;20470;-54
2023/01/27 11:15:32;;;;;;;11.50;5.43;;;20.10;99.90;;;;;;5009620;28;20026;-54
2023/01/27 11:18:11;;;;;;;10.48;4.95;;;20.20;99.90;;;;;;4995421;28;20061;-54
2023/01/27 11:20:41;;;;;;;11.40;5.57;;;20.20;99.90;;;;;;5014070;28;20160;-54
2023/01/27 11:23:28;;;;;;;10.18;4.78;;;20.30;99.90;;;;;;4995488;28;20112;-54
2023/01/27 11:25:56;;;;;;;10.30;5.20;;;20.40;99.90;;;;;;5013923;28;20042;-54
2023/01/27 11:28:40;;;;;;;11.18;4.82;;;20.40;99.90;;;;;;5022151;28;20032;-53
2023/01/27 11:31:36;;;;;;;12.68;5.15;;;20.40;99.90;;;;;;5015394;28;20105;-53
2023/01/27 11:34:20;;;;;;;8.32;5.07;;;20.50;99.90;;;;;;5014002;28;20061;-53
2023/01/27 11:36:47;;;;;;;8.25;5.03;;;20.50;99.90;;;;;;5013885;28;20041;-55
2023/01/27 11:39:14;;;;;;;7.03;4.28;;;20.50;99.90;;;;;;4996250;28;20065;-55
2023/01/27 11:41:54;;;;;;;10.98;5.05;;;20.60;99.90;;;;;;5014110;28;20434;-53
2023/01/27 11:44:33;;;;;;;7.88;4.55;;;20.60;99.90;;;;;;5013507;28;20080;-53
2023/01/27 11:47:01;;;;;;;7.55;4.60;;;20.60;99.90;;;;;;5015624;28;20169;-55
2023/01/27 11:49:41;;;;;;;11.38;5.25;;;20.70;99.90;;;;;;5016361;28;20033;-54
2023/01/27 11:52:13;;;;;;;7.80;4.78;;;20.70;99.90;;;;;;5013401;28;20449;-53
2023/01/27 11:54:42;;;;;;;6.22;4.57;;;20.80;99.90;;;;;;4995299;28;20022;-54
2023/01/27 11:57:21;;;;;;;9.88;4.65;;;20.80;99.90;;;;;;5016675;28;20479;-54
2023/01/27 11:59:52;;;;;;;8.88;4.68;;;20.80;99.90;;;;;;5014239;28;20089;-54
2023/01/27 12:02:39;;;;;;;6.55;4.25;;;20.90;99.90;;;;;;5013989;28;20378;-54
2023/01/27 12:05:13;;;;;;;7.75;5.07;;;20.90;99.90;;;;;;5014586;28;20040;-54
2023/01/27 12:07:48;;;;;;;6.78;4.35;;;20.90;99.90;;;;;;5012539;28;20088;-54
2023/01/27 12:10:23;;;;;;;8.18;4.35;;;21.00;99.90;;;;;;4995779;28;20071;-54
2023/01/27 12:12:49;;;;;;;9.18;5.15;;;21.00;99.90;;;;;;5016533;28;20096;-54
2023/01/27 12:15:16;;;;;;;6.93;4.68;;;21.00;99.90;;;;;;5030637;28;20511;-54
2023/01/27 12:17:53;;;;;;;5.80;4.72;;;21.10;99.90;;;;;;5016033;28;20105;-54
2023/01/27 12:20:35;;;;;;;8.90;4.80;;;21.10;99.90;;;;;;5014074;28;20486;-54
2023/01/27 12:23:38;;;;;;;8.35;4.75;;;21.10;99.90;;;;;;5011204;28;20064;-55
2023/01/27 12:26:07;;;;;;;6.88;4.78;;;21.20;99.90;;;;;;4991045;28;20060;-53
2023/01/27 12:28:46;;;;;;;8.45;4.65;;;21.20;99.90;;;;;;5013880;28;20026;-54
2023/01/27 12:31:28;;;;;;;37.45;6.55;;;21.20;99.90;;;;;;5012885;28;20393;-53
2023/01/27 12:34:04;;;;;;;5.13;3.95;;;21.20;99.90;;;;;;5013478;28;20058;-52
2023/01/27 12:36:38;;;;;;;10.55;4.25;;;21.20;99.90;;;;;;5014755;28;20072;-55
2023/01/27 12:39:04;;;;;;;12.23;5.20;;;21.20;99.90;;;;;;5014646;28;20030;-54
2023/01/27 12:41:32;;;;;;;13.10;5.00;;;21.20;99.90;;;;;;5014972;28;20037;-54
2023/01/27 12:44:15;;;;;;;6.05;4.25;;;21.20;99.90;;;;;;5014941;28;20029;-53
2023/01/27 12:46:53;;;;;;;6.40;4.38;;;21.20;99.90;;;;;;5014671;28;20037;-55
2023/01/27 12:49:20;;;;;;;6.45;4.38;;;21.20;99.90;;;;;;5014574;28;20490;-53
2023/01/27 12:51:55;;;;;;;11.02;4.97;;;21.20;99.90;;;;;;5014527;28;20029;-53
2023/01/27 12:54:24;;;;;;;6.22;4.80;;;21.20;99.90;;;;;;4991532;28;20073;-51
2023/01/27 12:56:52;;;;;;;7.03;4.50;;;21.30;99.90;;;;;;4996091;28;20076;-52
2023/01/27 12:59:22;;;;;;;8.60;4.88;;;21.30;99.90;;;;;;5013614;28;20021;-54
2023/01/27 13:02:26;;;;;;;7.15;4.70;;;21.30;99.90;;;;;;5013477;28;20026;-53
2023/01/27 13:04:53;;;;;;;8.55;5.18;;;21.30;99.90;;;;;;5013147;28;20021;-54
2023/01/27 13:07:26;;;;;;;5.75;4.35;;;21.40;99.90;;;;;;5013949;28;20027;-54
2023/01/27 13:09:59;;;;;;;7.18;4.43;;;21.40;99.90;;;;;;4995981;28;20018;-54
2023/01/27 13:12:30;;;;;;;6.70;4.53;;;21.40;99.90;;;;;;5013919;28;20026;-53
2023/01/27 13:15:04;;;;;;;8.52;4.90;;;21.50;99.90;;;;;;5013770;28;20010;-53
2023/01/27 13:17:33;;;;;;;9.35;4.80;;;21.50;99.90;;;;;;5013689;28;20048;-53
2023/01/27 13:20:07;;;;;;;8.65;5.40;;;21.50;99.90;;;;;;5013376;28;20398;-53
2023/01/27 13:22:43;;;;;;;7.13;4.97;;;21.60;99.90;;;;;;5013467;28;20038;-53
2023/01/27 13:25:17;;;;;;;6.85;4.65;;;21.60;99.90;;;;;;5013491;28;20030;-52
2023/01/27 13:27:44;;;;;;;7.47;5.13;;;21.60;99.90;;;;;;5012655;28;20130;-53
2023/01/27 13:30:22;;;;;;;9.00;4.90;;;21.60;99.90;;;;;;4995962;28;20482;-53
2023/01/27 13:32:50;;;;;;;9.55;4.97;;;21.70;99.90;;;;;;5013474;28;20026;-52